Time;durP1;ratioP1;P1;durP2;ratioP2;P2;SDS_P1;SDS_P2;PMS_P1;PMS_P2;Temp;Humidity;BMP_temperature;BMP_pressure;BME280_temperature;BME280_humidity;BME280_pressure;Samples;Min_cycle;Max_cycle;Signal;HPM_P1;HPM_P2
2023/07/20 00:02:14;;;;;;;0.10;0.10;;;;;;;22.00;84.18;100696.28;5073746;28;20073;-89
2023/07/20 00:04:40;;;;;;;0.10;0.10;;;;;;;22.09;83.77;100696.44;5073724;28;20568;-88
2023/07/20 00:07:05;;;;;;;0.10;0.10;;;;;;;22.16;84.88;100689.59;5073599;28;20024;-88
2023/07/20 00:09:31;;;;;;;0.10;0.10;;;;;;;22.09;82.91;100693.78;5056733;28;20035;-87
2023/07/20 00:11:56;;;;;;;0.10;0.10;;;;;;;22.12;82.51;100678.50;5056851;28;20028;-88
2023/07/20 00:14:22;;;;;;;0.10;0.10;;;;;;;22.08;83.29;100673.69;5039648;28;20460;-87
2023/07/20 00:16:55;;;;;;;0.10;0.10;;;;;;;22.16;83.13;100684.31;5073359;28;20028;-89
2023/07/20 00:19:21;;;;;;;0.10;0.10;;;;;;;22.27;82.21;100686.75;5058846;28;20031;-88
2023/07/20 00:21:47;;;;;;;0.10;0.10;;;;;;;22.19;81.70;100681.38;5040246;28;20075;-88
2023/07/20 00:24:12;;;;;;;0.10;0.10;;;;;;;22.18;80.88;100672.66;5040099;28;20409;-86
2023/07/20 00:26:38;;;;;;;0.10;0.10;;;;;;;22.31;81.11;100683.66;5073094;28;20032;-89
2023/07/20 00:29:03;;;;;;;0.10;0.10;;;;;;;22.16;81.38;100665.88;5039712;28;20085;-87
2023/07/20 00:31:29;;;;;;;0.10;0.10;;;;;;;22.18;82.36;100653.38;5056488;28;20024;-87
2023/07/20 00:33:54;;;;;;;0.10;0.10;;;;;;;22.20;81.03;100648.78;5039608;28;20476;-89
2023/07/20 00:36:20;;;;;;;0.10;0.10;;;;;;;22.22;81.42;100646.81;5055800;28;20039;-87
2023/07/20 00:38:45;;;;;;;0.10;0.10;;;;;;;22.15;81.65;100635.25;5073113;28;20032;-90
2023/07/20 00:41:11;;;;;;;0.10;0.10;;;;;;;22.30;80.37;100639.81;5072826;28;20073;-88
2023/07/20 00:43:36;;;;;;;0.10;0.10;;;;;;;22.20;81.38;100633.81;5055950;28;20032;-87
2023/07/20 00:46:02;;;;;;;0.10;0.10;;;;;;;22.18;82.60;100621.75;5072746;28;20032;-88
2023/07/20 00:48:29;;;;;;;0.10;0.10;;;;;;;22.21;83.10;100624.09;5072809;28;20119;-87
2023/07/20 00:50:55;;;;;;;0.10;0.10;;;;;;;22.21;81.02;100632.81;5056233;28;20043;-87
2023/07/20 00:53:20;;;;;;;0.10;0.10;;;;;;;22.22;81.58;100609.94;5056257;28;20028;-87
2023/07/20 00:55:46;;;;;;;0.10;0.10;;;;;;;22.42;81.05;100634.31;5039507;28;20032;-88
2023/07/20 00:58:11;;;;;;;0.10;0.10;;;;;;;22.24;80.85;100597.47;5055957;28;20443;-87
2023/07/20 01:00:37;;;;;;;0.10;0.10;;;;;;;22.42;81.87;100618.50;5056149;28;20035;-88
2023/07/20 01:03:02;;;;;;;0.10;0.10;;;;;;;22.32;81.03;100616.00;5039415;28;20046;-87
2023/07/20 01:05:35;;;;;;;0.10;0.10;;;;;;;22.29;80.10;100605.72;5072810;28;20505;-86
2023/07/20 01:08:06;;;;;;;0.10;0.10;;;;;;;22.41;80.34;100622.97;5039799;28;20027;-88
2023/07/20 01:10:54;;;;;;;0.10;0.10;;;;;;;22.44;80.88;100624.47;5056240;28;20024;-87
2023/07/20 01:13:19;;;;;;;0.20;0.20;;;;;;;22.36;80.45;100614.69;5083558;28;20133;-88
2023/07/20 01:15:59;;;;;;;0.10;0.10;;;;;;;22.38;80.98;100625.06;5056311;28;20036;-88
2023/07/20 01:18:24;;;;;;;0.10;0.10;;;;;;;22.35;80.99;100635.94;5073668;28;20032;-87
2023/07/20 01:20:50;;;;;;;0.20;0.20;;;;;;;22.43;79.31;100641.28;5072669;28;20144;-87
2023/07/20 01:23:21;;;;;;;0.10;0.10;;;;;;;22.30;79.15;100628.47;5056008;28;20032;-89
2023/07/20 01:26:02;;;;;;;0.20;0.20;;;;;;;22.37;79.09;100644.50;5072274;28;20032;-87
2023/07/20 01:28:57;;;;;;;0.10;0.10;;;;;;;22.23;80.19;100640.59;5090508;28;20031;-88
2023/07/20 01:31:24;;;;;;;0.10;0.10;;;;;;;22.16;80.27;100631.63;5072658;28;20032;-87
2023/07/20 01:33:50;;;;;;;0.20;0.20;;;;;;;22.01;80.38;100618.94;5055704;28;20413;-87
2023/07/20 01:36:17;;;;;;;0.10;0.10;;;;;;;22.18;79.81;100640.22;5055984;28;20043;-87
2023/07/20 01:38:42;;;;;;;0.10;0.10;;;;;;;22.12;79.14;100635.53;5039105;28;20027;-87
2023/07/20 01:41:07;;;;;;;0.10;0.10;;;;;;;22.13;79.78;100637.22;5055230;28;20097;-87
2023/07/20 01:43:33;;;;;;;0.10;0.10;;;;;;;22.07;79.74;100616.72;5055531;28;20024;-87
2023/07/20 01:45:58;;;;;;;0.10;0.10;;;;;;;22.14;80.21;100633.59;5056375;28;20077;-87
2023/07/20 01:48:24;;;;;;;0.10;0.10;;;;;;;22.03;80.02;100632.81;5094233;28;20036;-87
2023/07/20 01:50:49;;;;;;;0.10;0.10;;;;;;;21.97;80.60;100628.13;5094293;28;20028;-87
2023/07/20 01:53:15;;;;;;;0.10;0.10;;;;;;;21.92;80.49;100617.19;5076033;28;20028;-87
2023/07/20 01:55:40;;;;;;;0.10;0.10;;;;;;;22.11;79.07;100634.69;5075854;28;20416;-87
2023/07/20 01:58:06;;;;;;;0.10;0.10;;;;;;;22.08;78.89;100639.44;5042795;28;20039;-86
2023/07/20 02:00:32;;;;;;;0.10;0.10;;;;;;;22.02;79.31;100641.69;5059368;28;20394;-86
2023/07/20 02:02:57;;;;;;;0.10;0.10;;;;;;;21.96;77.95;100623.00;5059212;28;20032;-86
2023/07/20 02:05:22;;;;;;;0.10;0.10;;;;;;;22.03;77.65;100638.06;5058952;28;20509;-88
2023/07/20 02:07:48;;;;;;;0.10;0.10;;;;;;;22.03;77.73;100632.81;5076033;28;20032;-88
2023/07/20 02:10:13;;;;;;;0.10;0.10;;;;;;;21.81;78.54;100606.84;5093405;28;20020;-87
2023/07/20 02:12:39;;;;;;;0.10;0.10;;;;;;;21.91;78.82;100626.06;5075665;28;20608;-87
2023/07/20 02:15:05;;;;;;;0.10;0.10;;;;;;;21.87;78.79;100626.53;5059107;28;20044;-88
2023/07/20 02:17:30;;;;;;;0.10;0.10;;;;;;;21.71;78.58;100612.19;5059031;28;20032;-86
2023/07/20 02:19:57;;;;;;;0.10;0.10;;;;;;;21.78;78.17;100625.59;5075673;28;20449;-86
2023/07/20 02:22:23;;;;;;;0.10;0.10;;;;;;;21.81;78.39;100627.94;5042552;28;20028;-86
2023/07/20 02:24:49;;;;;;;0.10;0.10;;;;;;;21.87;78.41;100643.16;5058363;28;20051;-87
2023/07/20 02:27:14;;;;;;;0.10;0.10;;;;;;;21.85;78.09;100631.94;5042281;28;20051;-87
2023/07/20 02:29:40;;;;;;;0.10;0.10;;;;;;;21.69;79.18;100621.22;5042184;28;20587;-86
2023/07/20 02:32:06;;;;;;;0.10;0.10;;;;;;;21.81;79.52;100638.47;5075566;28;20032;-88
2023/07/20 02:34:32;;;;;;;0.20;0.20;;;;;;;21.84;79.32;100632.09;5075666;28;20032;-87
2023/07/20 02:36:58;;;;;;;0.20;0.20;;;;;;;21.88;79.12;100642.16;5059110;28;20035;-87
2023/07/20 02:39:24;;;;;;;0.10;0.10;;;;;;;21.80;77.79;100647.34;5075352;28;20032;-87
2023/07/20 02:41:50;;;;;;;0.15;0.15;;;;;;;21.82;77.82;100645.38;5041889;28;20020;-86
2023/07/20 02:44:15;;;;;;;0.10;0.10;;;;;;;21.70;78.80;100620.22;5058719;28;20036;-86
2023/07/20 02:46:41;;;;;;;0.10;0.10;;;;;;;21.86;78.94;100630.97;5093476;28;20082;-87
2023/07/20 02:49:06;;;;;;;0.10;0.10;;;;;;;21.87;79.31;100637.06;5093073;28;20035;-86
2023/07/20 02:51:32;;;;;;;0.13;0.13;;;;;;;21.72;78.08;100620.91;5075013;28;20020;-87
2023/07/20 02:53:57;;;;;;;0.10;0.10;;;;;;;22.13;77.20;100634.56;5074503;28;20394;-87
2023/07/20 02:56:22;;;;;;;0.10;0.10;;;;;;;22.40;75.47;100628.38;5041686;28;20051;-87
2023/07/20 02:58:48;;;;;;;0.10;0.10;;;;;;;22.33;75.83;100646.63;5057391;28;20032;-86
2023/07/20 03:01:15;;;;;;;0.20;0.20;;;;;;;22.61;74.39;100637.66;5074668;28;20545;-86
2023/07/20 03:03:40;;;;;;;0.20;0.20;;;;;;;22.85;72.70;100644.13;5075001;28;20035;-86
2023/07/20 03:06:08;;;;;;;0.10;0.10;;;;;;;22.94;71.93;100659.03;5074914;28;20073;-87
2023/07/20 03:08:34;;;;;;;0.20;0.20;;;;;;;23.07;72.12;100648.06;5058218;28;20065;-87
2023/07/20 03:10:59;;;;;;;0.10;0.10;;;;;;;23.08;71.45;100628.59;5041100;28;20023;-86
2023/07/20 03:13:25;;;;;;;0.10;0.10;;;;;;;23.36;70.46;100642.44;5074543;28;20044;-86
2023/07/20 03:15:52;;;;;;;0.17;0.17;;;;;;;23.09;70.29;100609.13;5074395;28;20440;-88
2023/07/20 03:18:18;;;;;;;0.10;0.10;;;;;;;23.38;70.29;100627.28;5057855;28;20036;-88
2023/07/20 03:20:43;;;;;;;0.20;0.20;;;;;;;23.39;69.75;100623.66;5058093;28;20389;-87
2023/07/20 03:23:08;;;;;;;0.20;0.20;;;;;;;23.18;71.14;100635.41;5057349;28;20032;-88
2023/07/20 03:25:37;;;;;;;0.10;0.10;;;;;;;23.07;71.10;100640.97;5074054;28;20032;-86
2023/07/20 03:28:02;;;;;;;0.20;0.20;;;;;;;22.99;70.97;100625.06;5058247;28;20581;-87
2023/07/20 03:30:28;;;;;;;0.20;0.20;;;;;;;22.94;71.85;100643.19;5074602;28;20050;-86
2023/07/20 03:32:53;;;;;;;0.10;0.10;;;;;;;22.98;71.44;100654.25;5041047;28;20112;-87
2023/07/20 03:35:19;;;;;;;0.15;0.15;;;;;;;22.78;71.73;100648.31;5057454;28;20478;-86
2023/07/20 03:37:44;;;;;;;0.20;0.20;;;;;;;22.70;72.85;100651.72;5057187;28;20999;-88
2023/07/20 03:40:10;;;;;;;0.10;0.10;;;;;;;22.57;73.40;100656.56;5074212;28;20418;-88
2023/07/20 03:42:36;;;;;;;0.10;0.10;;;;;;;22.34;74.75;100648.28;5040774;28;20024;-88
2023/07/20 03:45:02;;;;;;;0.10;0.10;;;;;;;22.46;75.16;100660.25;5045176;28;20052;-87
2023/07/20 03:47:28;;;;;;;0.10;0.10;;;;;;;22.45;74.30;100652.50;5057410;28;20038;-86
2023/07/20 03:49:53;;;;;;;0.10;0.10;;;;;;;22.38;74.76;100643.53;5091903;28;20016;-86
2023/07/20 03:52:19;;;;;;;0.10;0.10;;;;;;;22.21;75.28;100637.25;5056548;28;20474;-86
2023/07/20 03:54:44;;;;;;;0.10;0.10;;;;;;;22.26;76.24;100643.75;5091064;28;20420;-88
2023/07/20 03:57:10;;;;;;;0.10;0.10;;;;;;;22.12;77.31;100639.00;5040091;28;20058;-86
2023/07/20 03:59:37;;;;;;;0.10;0.10;;;;;;;22.16;74.24;100655.34;5040285;28;20028;-87
2023/07/20 04:02:02;;;;;;;0.10;0.10;;;;;;;22.04;73.64;100634.47;5056958;28;20474;-88
2023/07/20 04:04:28;;;;;;;0.10;0.10;;;;;;;22.19;73.87;100649.75;5056517;28;20972;-87
2023/07/20 04:06:53;;;;;;;0.10;0.10;;;;;;;21.99;74.22;100631.41;5073205;28;20061;-86
2023/07/20 04:09:19;;;;;;;0.10;0.10;;;;;;;22.19;73.61;100645.31;5057397;28;20055;-86
2023/07/20 04:11:44;;;;;;;0.20;0.20;;;;;;;22.08;73.28;100648.19;5073504;28;20063;-86
2023/07/20 04:14:09;;;;;;;0.10;0.10;;;;;;;22.03;73.80;100645.97;5073464;28;20052;-87
2023/07/20 04:16:35;;;;;;;0.10;0.10;;;;;;;21.94;73.46;100631.06;5056802;28;20023;-86
2023/07/20 04:19:00;;;;;;;0.10;0.10;;;;;;;21.97;74.42;100633.38;5072618;28;20020;-86
2023/07/20 04:21:27;;;;;;;0.10;0.10;;;;;;;22.03;74.73;100645.97;5056978;28;20024;-86
2023/07/20 04:23:52;;;;;;;0.10;0.10;;;;;;;22.12;73.77;100648.69;5090990;28;20034;-88
2023/07/20 04:26:17;;;;;;;0.10;0.10;;;;;;;22.13;73.62;100650.38;5057017;28;20028;-86
2023/07/20 04:28:43;;;;;;;0.10;0.10;;;;;;;22.16;74.60;100639.53;5073082;28;20032;-89
2023/07/20 04:31:15;;;;;;;0.20;0.17;;;;;;;22.25;72.94;100643.91;5072783;28;20455;-87
2023/07/20 04:33:41;;;;;;;0.10;0.10;;;;;;;22.31;72.93;100640.66;5040416;28;20115;-88
2023/07/20 04:36:07;;;;;;;0.20;0.20;;;;;;;22.31;72.14;100645.94;5046036;28;20521;-89
2023/07/20 04:38:34;;;;;;;0.10;0.10;;;;;;;22.36;72.48;100654.22;5028016;28;20048;-89
2023/07/20 04:40:59;;;;;;;0.10;0.10;;;;;;;22.31;71.69;100651.19;5050067;28;20032;-92
2023/07/20 04:43:26;;;;;;;0.10;0.10;;;;;;;22.34;72.90;100656.19;5163041;23;20053;-93
2023/07/20 04:45:52;;;;;;;0.10;0.10;;;;;;;22.35;72.52;100647.31;5005514;28;20111;-93
2023/07/20 04:48:20;;;;;;;0.10;0.10;;;;;;;22.37;72.91;100660.31;4983136;28;20030;-92
2023/07/20 04:50:46;;;;;;;0.10;0.10;;;;;;;22.38;72.56;100662.81;4994587;28;20037;-91
2023/07/20 04:53:12;;;;;;;0.10;0.10;;;;;;;22.46;72.83;100676.06;4961997;28;20472;-89
2023/07/20 04:55:41;;;;;;;0.10;0.10;;;;;;;22.04;75.18;100681.03;4983842;28;20052;-90
2023/07/20 04:58:06;;;;;;;0.10;0.10;;;;;;;21.79;75.87;100666.75;4978121;28;20050;-88
2023/07/20 05:00:35;;;;;;;0.10;0.10;;;;;;;21.72;78.19;100674.38;4977492;28;20511;-91
2023/07/20 05:03:01;;;;;;;0.10;0.10;;;;;;;22.04;77.86;100671.34;4982527;28;20033;-88
2023/07/20 05:05:26;;;;;;;0.10;0.10;;;;;;;22.20;73.85;100662.78;4982285;28;20045;-85
2023/07/20 05:07:52;;;;;;;0.20;0.20;;;;;;;22.24;76.25;100672.06;4978274;28;20041;-90
2023/07/20 05:10:17;;;;;;;0.10;0.10;;;;;;;22.11;76.83;100665.47;4966939;28;20419;-88
2023/07/20 05:12:43;;;;;;;0.10;0.10;;;;;;;22.17;78.53;100670.19;5032786;28;20032;-91
2023/07/20 05:15:09;;;;;;;0.10;0.10;;;;;;;22.20;77.04;100672.50;5016275;28;20033;-86
2023/07/20 05:17:34;;;;;;;0.20;0.20;;;;;;;22.20;76.00;100670.69;5029689;28;20025;-92
2023/07/20 05:20:00;;;;;;;0.10;0.10;;;;;;;22.14;77.35;100675.75;5013198;28;20083;-88
2023/07/20 05:22:25;;;;;;;0.10;0.10;;;;;;;22.33;74.71;100681.72;4983840;28;20033;-88
2023/07/20 05:24:51;;;;;;;0.20;0.20;;;;;;;22.42;73.27;100684.41;4999794;28;20026;-86
2023/07/20 05:27:16;;;;;;;0.10;0.10;;;;;;;22.41;74.80;100680.94;5019480;28;20044;-88
2023/07/20 05:29:45;;;;;;;0.15;0.15;;;;;;;22.69;73.17;100679.06;5019896;28;20542;-88
2023/07/20 05:32:11;;;;;;;0.10;0.10;;;;;;;22.64;72.76;100675.25;5019333;28;20033;-85
2023/07/20 05:34:36;;;;;;;0.20;0.20;;;;;;;22.64;75.32;100683.16;5036158;28;20025;-89
2023/07/20 05:37:08;;;;;;;0.10;0.10;;;;;;;22.75;74.09;100648.63;5016874;28;20462;-85
2023/07/20 05:39:33;;;;;;;0.10;0.10;;;;;;;22.88;76.33;100686.84;5000265;28;20064;-92
2023/07/20 05:41:59;;;;;;;0.10;0.10;;;;;;;22.77;74.80;100691.50;4984216;28;20053;-86
2023/07/20 05:44:25;;;;;;;0.10;0.10;;;;;;;23.09;74.09;100710.22;5016374;28;20419;-88
2023/07/20 05:46:50;;;;;;;0.17;0.17;;;;;;;23.14;71.88;100723.81;4991686;28;20061;-87
2023/07/20 05:49:16;;;;;;;0.10;0.10;;;;;;;23.12;72.72;100696.75;4999636;28;20495;-84
2023/07/20 05:51:41;;;;;;;0.10;0.10;;;;;;;23.41;71.60;100699.09;5029286;28;20395;-86
2023/07/20 05:54:07;;;;;;;0.10;0.10;;;;;;;23.68;71.25;100708.66;5031584;28;20033;-91
2023/07/20 05:56:32;;;;;;;0.10;0.10;;;;;;;23.61;72.31;100709.47;4982013;28;20025;-87
2023/07/20 05:58:57;;;;;;;0.10;0.10;;;;;;;23.67;69.82;100709.63;4996179;28;20037;-91
2023/07/20 06:01:26;;;;;;;0.10;0.10;;;;;;;23.75;70.08;100720.25;4980569;28;20030;-92
2023/07/20 06:03:52;;;;;;;0.10;0.10;;;;;;;23.74;70.90;100728.31;5008846;28;20087;-93
2023/07/20 06:06:17;;;;;;;0.10;0.10;;;;;;;24.00;71.18;100730.94;4996504;28;20030;-87
2023/07/20 06:08:43;;;;;;;0.10;0.10;;;;;;;24.14;70.32;100732.13;4983806;28;20034;-93
2023/07/20 06:11:08;;;;;;;0.10;0.10;;;;;;;24.23;69.93;100737.28;5001581;28;20029;-91
2023/07/20 06:13:33;;;;;;;0.10;0.10;;;;;;;24.36;69.69;100728.91;5003330;28;20038;-89
2023/07/20 06:15:59;;;;;;;0.10;0.10;;;;;;;24.50;69.14;100743.34;4986761;28;20074;-93
2023/07/20 06:18:24;;;;;;;0.10;0.10;;;;;;;24.36;68.47;100720.16;5002950;28;20458;-91
2023/07/20 06:20:51;;;;;;;0.10;0.10;;;;;;;24.85;67.52;100761.53;5002473;28;20096;-91
2023/07/20 06:23:18;;;;;;;0.20;0.20;;;;;;;25.07;67.32;100769.84;4992760;28;20030;-91
2023/07/20 06:25:47;;;;;;;0.10;0.10;;;;;;;25.11;66.83;100776.50;4996776;28;20113;-92
2023/07/20 06:28:13;;;;;;;0.10;0.10;;;;;;;25.24;65.69;100774.16;4968034;28;20066;-89
2023/07/20 06:30:38;;;;;;;0.10;0.10;;;;;;;25.21;65.69;100779.78;4972885;28;20539;-90
2023/07/20 06:33:09;;;;;;;0.10;0.10;;;;;;;25.29;64.91;100779.78;5000435;28;20026;-91
2023/07/20 06:35:36;;;;;;;0.10;0.10;;;;;;;25.58;64.90;100789.03;5020112;28;20033;-92
2023/07/20 06:38:03;;;;;;;0.10;0.10;;;;;;;25.73;62.45;100788.19;5005038;28;20091;-92
2023/07/20 06:40:30;;;;;;;0.10;0.10;;;;;;;25.76;60.82;100768.47;4992446;28;20017;-92
2023/07/20 06:42:55;;;;;;;0.10;0.10;;;;;;;26.17;60.67;100793.03;5007266;28;20515;-92
2023/07/20 06:45:21;;;;;;;0.20;0.20;;;;;;;26.40;61.18;100795.75;5007207;28;20029;-93
2023/07/20 06:47:49;;;;;;;0.20;0.20;;;;;;;26.36;58.57;100801.56;5017659;28;20107;-93
2023/07/20 06:50:15;;;;;;;0.15;0.15;;;;;;;26.37;58.36;100814.66;5015274;28;20032;-92
2023/07/20 06:52:40;;;;;;;0.10;0.10;;;;;;;26.21;56.46;100810.22;5007046;28;20414;-93
2023/07/20 06:55:07;;;;;;;0.10;0.10;;;;;;;26.03;57.20;100796.38;5019129;28;20026;-93
2023/07/20 06:57:32;;;;;;;0.15;0.15;;;;;;;25.79;58.30;100789.34;4982199;28;20145;-88
2023/07/20 06:59:58;;;;;;;0.32;0.20;;;;;;;25.54;58.47;100830.06;4999491;28;20502;-91
2023/07/20 07:02:23;;;;;;;0.10;0.10;;;;;;;25.11;58.89;100824.13;5014729;28;20044;-89
2023/07/20 07:04:48;;;;;;;0.10;0.10;;;;;;;25.01;60.75;100815.50;5002869;28;20032;-89
2023/07/20 07:07:17;;;;;;;0.10;0.10;;;;;;;24.68;61.66;100839.25;5002299;28;20029;-92
2023/07/20 07:09:42;;;;;;;0.10;0.10;;;;;;;24.20;62.94;100835.41;4987455;28;20037;-90
2023/07/20 07:12:08;;;;;;;0.10;0.10;;;;;;;23.84;63.68;100821.50;4997617;28;20084;-92
2023/07/20 07:14:34;;;;;;;0.10;0.10;;;;;;;23.64;65.35;100826.16;4966110;28;20034;-88
2023/07/20 07:16:59;;;;;;;0.10;0.10;;;;;;;23.43;65.81;100813.28;4979434;28;20034;-84
2023/07/20 07:19:25;;;;;;;0.10;0.10;;;;;;;23.44;65.53;100851.06;5012263;28;20502;-84
2023/07/20 07:21:50;;;;;;;0.10;0.10;;;;;;;23.21;66.13;100852.53;4995547;28;20099;-86
2023/07/20 07:24:16;;;;;;;0.10;0.10;;;;;;;23.27;66.58;100846.63;4979116;28;20029;-86
2023/07/20 07:26:42;;;;;;;0.10;0.10;;;;;;;23.22;66.77;100836.53;4999376;28;20030;-93
2023/07/20 07:29:07;;;;;;;0.10;0.10;;;;;;;23.28;66.09;100835.09;4989158;28;20113;-90
2023/07/20 07:31:34;;;;;;;0.10;0.10;;;;;;;23.31;67.13;100822.44;5014603;28;20092;-93
2023/07/20 07:34:00;;;;;;;0.10;0.10;;;;;;;23.30;68.26;100839.22;4963527;28;20072;-93
2023/07/20 07:36:25;;;;;;;0.10;0.10;;;;;;;23.15;69.11;100817.84;5027415;28;20029;-91
2023/07/20 07:38:51;;;;;;;0.20;0.20;;;;;;;23.08;69.90;100808.84;5009567;28;20026;-92
2023/07/20 07:41:16;;;;;;;0.10;0.10;;;;;;;23.05;71.67;100795.97;4985846;28;20415;-85
2023/07/20 07:43:42;;;;;;;0.10;0.10;;;;;;;23.06;71.89;100780.97;5054859;28;20053;-89
2023/07/20 07:46:07;;;;;;;0.10;0.10;;;;;;;23.02;72.41;100755.88;5015891;28;20119;-87
2023/07/20 07:48:33;;;;;;;0.10;0.10;;;;;;;23.19;72.27;100786.69;5013642;28;20033;-92
2023/07/20 07:50:58;;;;;;;0.20;0.20;;;;;;;23.31;72.61;100771.44;5013233;28;20095;-89
2023/07/20 07:53:25;;;;;;;0.10;0.10;;;;;;;23.45;72.80;100741.84;4989130;28;20034;-92
2023/07/20 07:55:51;;;;;;;0.10;0.10;;;;;;;23.68;71.67;100735.06;4985096;28;20029;-92
2023/07/20 07:58:16;;;;;;;0.20;0.20;;;;;;;23.98;72.56;100722.31;5001228;28;20065;-93
2023/07/20 08:00:43;;;;;;;0.10;0.10;;;;;;;24.39;69.11;100735.72;5021659;28;20026;-92
2023/07/20 08:03:08;;;;;;;0.10;0.10;;;;;;;24.62;68.13;100723.50;4981598;28;20046;-93
2023/07/20 08:05:34;;;;;;;0.20;0.20;;;;;;;24.74;68.47;100713.44;4963487;28;20030;-88
2023/07/20 08:08:01;;;;;;;0.10;0.10;;;;;;;24.78;65.93;100691.78;5037973;28;20029;-93
2023/07/20 08:10:26;;;;;;;0.15;0.15;;;;;;;24.85;65.95;100676.06;5032896;28;20037;-92
2023/07/20 08:12:52;;;;;;;0.10;0.10;;;;;;;24.76;65.58;100640.81;5034491;28;21470;-91
2023/07/20 08:15:17;;;;;;;0.20;0.20;;;;;;;25.05;66.16;100660.69;5033549;28;20087;-91
2023/07/20 08:17:44;;;;;;;0.10;0.10;;;;;;;25.02;65.42;100669.78;5002495;28;20548;-92
2023/07/20 08:20:12;;;;;;;0.10;0.10;;;;;;;25.08;63.90;100610.06;5019843;28;20025;-87
2023/07/20 08:22:38;;;;;;;0.10;0.10;;;;;;;25.28;65.61;100584.84;5025227;28;20032;-94
2023/07/20 08:25:03;;;;;;;0.10;0.10;;;;;;;25.33;64.47;100579.84;4981774;28;20033;-93
2023/07/20 08:27:29;;;;;;;0.13;0.13;;;;;;;25.38;64.83;100611.13;4989281;28;20037;-94
2023/07/20 08:29:55;;;;;;;0.10;0.10;;;;;;;25.60;65.30;100641.34;4983084;28;20033;-91
2023/07/20 08:32:20;;;;;;;0.10;0.10;;;;;;;25.90;61.89;100632.59;5030451;28;20055;-92
2023/07/20 08:34:46;;;;;;;0.10;0.10;;;;;;;25.88;59.89;100592.19;5017862;28;20033;-91
2023/07/20 08:37:11;;;;;;;0.10;0.10;;;;;;;26.11;60.00;100586.91;5034221;28;20033;-92
2023/07/20 08:39:37;;;;;;;0.10;0.10;;;;;;;26.21;59.44;100615.81;5017235;28;20499;-93
2023/07/20 08:42:06;;;;;;;0.20;0.20;;;;;;;25.84;58.95;100643.88;5014095;28;20120;-90
2023/07/20 08:44:35;;;;;;;0.15;0.15;;;;;;;25.71;58.18;100675.41;4987296;28;20035;-90
2023/07/20 08:47:04;;;;;;;0.10;0.10;;;;;;;25.77;59.36;100672.09;5000008;28;20091;-92
2023/07/20 08:49:32;;;;;;;0.10;0.10;;;;;;;25.76;60.63;100670.41;5014080;28;20037;-90
2023/07/20 08:51:58;;;;;;;0.20;0.20;;;;;;;25.80;61.72;100670.91;5012532;28;20042;-94
2023/07/20 08:54:24;;;;;;;0.10;0.10;;;;;;;25.96;61.10;100674.31;4993828;28;20088;-91
2023/07/20 08:56:50;;;;;;;0.10;0.10;;;;;;;26.03;60.92;100672.59;4980303;28;20044;-90
2023/07/20 08:59:16;;;;;;;0.10;0.10;;;;;;;26.09;60.01;100678.22;4978852;28;20033;-92
2023/07/20 09:01:42;;;;;;;0.17;0.17;;;;;;;26.15;60.07;100667.72;4980406;28;20080;-91
2023/07/20 09:04:07;;;;;;;0.10;0.10;;;;;;;26.19;58.19;100668.22;4977670;28;20034;-90
2023/07/20 09:06:34;;;;;;;0.10;0.10;;;;;;;26.46;58.51;100675.69;4996637;28;20029;-89
2023/07/20 09:09:00;;;;;;;0.10;0.10;;;;;;;26.69;57.00;100666.88;5032848;28;20085;-92
2023/07/20 09:11:25;;;;;;;0.10;0.10;;;;;;;26.71;56.40;100668.34;4992790;28;20557;-92
2023/07/20 09:14:07;;;;;;;0.10;0.10;;;;;;;27.04;55.38;100654.78;4978001;28;20066;-90
2023/07/20 09:16:46;;;;;;;0.10;0.10;;;;;;;27.20;54.02;100651.16;4977585;28;20030;-90
2023/07/20 09:19:11;;;;;;;0.30;0.20;;;;;;;27.16;54.32;100658.69;4999266;28;20423;-93
2023/07/20 09:21:37;;;;;;;0.20;0.20;;;;;;;27.28;54.50;100646.59;4996881;28;20091;-93
2023/07/20 09:24:02;;;;;;;0.20;0.20;;;;;;;27.34;55.05;100648.53;4996406;28;20064;-91
2023/07/20 09:26:28;;;;;;;0.10;0.10;;;;;;;27.62;51.78;100664.59;4994696;28;20041;-91
2023/07/20 09:28:55;;;;;;;0.10;0.10;;;;;;;27.34;52.50;100660.97;4995294;28;20427;-93
2023/07/20 09:31:21;;;;;;;0.10;0.10;;;;;;;27.66;52.00;100643.84;4979962;28;20033;-89
2023/07/20 09:33:47;;;;;;;0.10;0.10;;;;;;;28.15;52.06;100667.94;4990869;28;20065;-87
2023/07/20 09:36:13;;;;;;;0.20;0.20;;;;;;;28.09;49.19;100658.03;4994556;28;20497;-88
2023/07/20 09:38:43;;;;;;;0.10;0.10;;;;;;;27.84;51.62;100675.34;4997353;28;20567;-90
2023/07/20 09:41:12;;;;;;;0.10;0.10;;;;;;;27.74;52.55;100677.47;4991780;28;20029;-85
2023/07/20 09:43:38;;;;;;;0.20;0.20;;;;;;;27.75;51.84;100660.50;5005818;28;20089;-88
2023/07/20 09:46:03;;;;;;;0.10;0.10;;;;;;;27.88;51.74;100681.94;4991513;28;20077;-89
2023/07/20 09:48:29;;;;;;;0.20;0.20;;;;;;;28.07;52.42;100678.69;5009896;28;20030;-91
2023/07/20 09:50:56;;;;;;;0.10;0.10;;;;;;;27.98;52.55;100682.47;4977059;28;20025;-92
2023/07/20 09:53:21;;;;;;;0.10;0.10;;;;;;;28.04;51.94;100680.91;4995443;28;20204;-88
2023/07/20 09:55:47;;;;;;;0.10;0.10;;;;;;;28.13;52.14;100669.97;4982466;28;20491;-86
2023/07/20 09:58:13;;;;;;;0.20;0.20;;;;;;;28.16;52.73;100674.88;4988794;28;20035;-88
2023/07/20 10:00:39;;;;;;;0.20;0.20;;;;;;;28.23;52.69;100665.16;4989900;28;20034;-91
2023/07/20 10:03:05;;;;;;;0.20;0.20;;;;;;;28.26;52.01;100658.63;4973090;28;20038;-87
2023/07/20 10:05:35;;;;;;;0.10;0.10;;;;;;;28.55;52.53;100657.69;5005019;28;20038;-85
2023/07/20 10:08:02;;;;;;;0.10;0.10;;;;;;;28.49;51.81;100669.09;4974423;28;20030;-86
2023/07/20 10:10:27;;;;;;;0.10;0.10;;;;;;;28.50;52.68;100671.56;4986269;28;20034;-87
2023/07/20 10:12:53;;;;;;;0.20;0.20;;;;;;;28.41;52.23;100655.91;4992910;28;20080;-87
2023/07/20 10:15:27;;;;;;;0.10;0.10;;;;;;;28.64;52.77;100669.84;4993115;28;20022;-89
2023/07/20 10:18:01;;;;;;;0.10;0.10;;;;;;;28.93;51.74;100670.72;4996310;28;20033;-88
2023/07/20 10:20:27;;;;;;;0.10;0.10;;;;;;;29.03;49.28;100650.72;5013319;28;20107;-88
2023/07/20 10:22:53;;;;;;;0.20;0.20;;;;;;;29.27;50.96;100646.78;5002206;28;20496;-88
2023/07/20 10:25:19;;;;;;;0.17;0.17;;;;;;;29.41;50.21;100659.16;4976589;28;20073;-89
2023/07/20 10:27:45;;;;;;;0.20;0.20;;;;;;;29.50;49.67;100640.34;4992379;28;20053;-87
2023/07/20 10:30:11;;;;;;;0.20;0.20;;;;;;;29.58;48.28;100640.19;5015839;28;20508;-90
2023/07/20 10:32:36;;;;;;;0.20;0.20;;;;;;;29.73;47.07;100648.03;4997211;28;20114;-91
2023/07/20 10:35:02;;;;;;;0.10;0.10;;;;;;;29.69;44.64;100644.94;4995502;28;20022;-88
2023/07/20 10:37:45;;;;;;;0.10;0.10;;;;;;;30.02;44.53;100642.38;4990342;28;20834;-88
2023/07/20 10:40:28;;;;;;;0.10;0.10;;;;;;;30.10;43.82;100644.91;5010732;28;20033;-89
2023/07/20 10:43:12;;;;;;;0.20;0.20;;;;;;;29.72;43.08;100628.56;4986814;28;20092;-87
2023/07/20 10:45:50;;;;;;;0.20;0.20;;;;;;;30.18;42.28;100639.34;4979559;28;20492;-85
2023/07/20 10:48:25;;;;;;;0.10;0.10;;;;;;;30.58;41.00;100633.22;4990245;28;20036;-83
2023/07/20 10:51:14;;;;;;;0.20;0.20;;;;;;;30.55;41.16;100645.97;4978918;28;20026;-85
2023/07/20 10:53:40;;;;;;;0.20;0.20;;;;;;;30.54;40.90;100638.97;4972226;28;20085;-87
2023/07/20 10:56:13;;;;;;;0.10;0.10;;;;;;;30.33;41.33;100622.34;4949166;28;20050;-89
2023/07/20 10:58:41;;;;;;;0.17;0.17;;;;;;;30.15;41.11;100629.09;4969560;28;20518;-93
2023/07/20 11:01:06;;;;;;;0.20;0.20;;;;;;;30.37;41.78;100621.72;5012622;28;20095;-88
2023/07/20 11:03:39;;;;;;;0.20;0.20;;;;;;;30.36;42.35;100620.09;4994655;28;20038;-90
2023/07/20 11:06:23;;;;;;;0.10;0.10;;;;;;;30.29;42.34;100635.28;4994562;28;20038;-88
2023/07/20 11:08:49;;;;;;;0.10;0.10;;;;;;;30.60;42.67;100636.53;4994896;28;20046;-89
2023/07/20 11:11:28;;;;;;;0.20;0.20;;;;;;;30.60;41.72;100621.34;4983152;28;20100;-90
2023/07/20 11:14:04;;;;;;;0.10;0.10;;;;;;;30.54;42.82;100628.31;4985069;28;20026;-88
2023/07/20 11:16:46;;;;;;;0.20;0.20;;;;;;;30.33;43.42;100636.50;4971504;28;20034;-90
2023/07/20 11:19:16;;;;;;;0.20;0.20;;;;;;;30.58;43.83;100628.72;5000061;28;20022;-90
2023/07/20 11:21:42;;;;;;;0.17;0.17;;;;;;;30.44;43.43;100627.06;5005670;28;20038;-89
2023/07/20 11:24:09;;;;;;;0.20;0.20;;;;;;;30.39;43.60;100602.88;4971930;28;20034;-89